• Join FlightAware (Why Join?)
  • Login
  • US Flag 
12:27PM EST


 

Airport Tracker/Info


-or-


 

Live Flight TrackerFlight Track Log ✈ N522PK ✈ 09-Oct-2013 ✈ KDLH - KANE

Flight Track Log - Related Links

Times and Time Zones

All times are in EDT time to prevent confusion due to time zone crossing. See the N522PK flight status page for this flight to view local times or setup timezone preferences in your user account.

Time Position Orientation Groundspeed Altitude Reporting Facility
EDT Latitude Longitude Course Direction KTS MPH feet Rate Location/Type
02:26PM 46.8420 -92.2090 326° Northwest 91 105 1,400  Level FlightAware
02:26PM 46.8370 -92.2310 252° West 114 131 2,000 1,020 Climbing FlightAware
02:26PM 46.8340 -92.2400 244° Southwest 116 133 2,200 1,080 Climbing FlightAware
02:27PM 46.8300 -92.2540 247° West 114 131 2,600 960 Climbing FlightAware
02:27PM 46.8280 -92.2660 256° West 120 138 2,800 600 Climbing FlightAware
02:27PM 46.8250 -92.2760 246° West 127 146 2,900 360 Climbing FlightAware
02:27PM 46.8250 -92.2770 270° West 127 146 2,900 360 Level FlightAware
02:27PM 46.8180 -92.2820 206° Southwest 127 146 3,000 360 Climbing FlightAware
02:28PM 46.8060 -92.2880 199° South 128 147 3,100 420 Climbing FlightAware
02:28PM 46.7960 -92.2940 202° Southwest 129 148 3,300 600 Climbing FlightAware
02:28PM 46.7840 -92.3010 202° Southwest 129 148 3,500 600 Climbing FlightAware
02:29PM 46.7740 -92.3070 202° Southwest 133 153 3,700 420 Climbing FlightAware
02:29PM 46.7630 -92.3130 200° South 131 151 3,800 420 Climbing FlightAware
02:29PM 46.7510 -92.3190 199° South 133 153 4,000 420 Climbing FlightAware
02:30PM 46.7390 -92.3260 202° Southwest 133 153 4,100 300 Climbing FlightAware
02:30PM 46.7280 -92.3330 204° Southwest 131 151 4,200 300 Climbing FlightAware
02:30PM 46.7190 -92.3380 201° Southwest 129 148 4,300 300 Climbing FlightAware
02:31PM 46.7080 -92.3440 201° Southwest 130 150 4,400 300 Climbing FlightAware
02:31PM 46.6970 -92.3510 204° Southwest 129 148 4,500 360 Climbing FlightAware
02:31PM 46.6840 -92.3580 200° South 127 146 4,700 360 Climbing FlightAware
02:32PM 46.6720 -92.3650 202° Southwest 124 143 4,800 180 Climbing FlightAware
02:32PM 46.6660 -92.3680 199° South 124 143 4,800 120 Level FlightAware
02:32PM 46.6540 -92.3750 202° Southwest 122 140 4,900 240 Climbing FlightAware
02:33PM 46.6430 -92.3810 201° Southwest 122 140 5,000 300 Climbing FlightAware
02:33PM 46.6320 -92.3870 201° Southwest 121 139 5,100 300 Climbing FlightAware
02:33PM 46.6220 -92.3930 202° Southwest 118 136 5,200 360 Climbing FlightAware
02:34PM 46.6110 -92.4000 204° Southwest 118 136 5,400 360 Climbing FlightAware
02:34PM 46.6000 -92.4060 201° Southwest 117 135 5,500 240 Climbing FlightAware
02:34PM 46.5900 -92.4110 199° South 119 137 5,600 240 Climbing FlightAware
02:35PM 46.5790 -92.4180 204° Southwest 120 138 5,700 240 Climbing FlightAware
02:35PM 46.5680 -92.4240 201° Southwest 120 138 5,800 -180 Climbing FlightAware
02:36PM 46.5550 -92.4310 200° South 135 155 5,600 -600 Descending FlightAware
02:36PM 46.5430 -92.4390 205° Southwest 145 167 5,400 -600 Descending FlightAware
02:36PM 46.5360 -92.4430 201° Southwest 146 168 5,300 -600 Descending FlightAware
02:36PM 46.5230 -92.4500 200° South 148 170 5,100 -600 Descending FlightAware
02:37PM 46.5070 -92.4580 199° South 148 170 4,900 -420 Descending FlightAware
02:37PM 46.4950 -92.4650 202° Southwest 144 166 4,800 -240 Descending FlightAware
02:38PM 46.4740 -92.4770 201° Southwest 142 163 4,700 -60 Descending FlightAware
02:43PM 46.2820 -92.5353 192° South  Level FlightAware Approximate
02:43PM 46.2789 -92.5856 203° Southwest 142 163 4,500  Level Minneapolis Center
02:44PM 46.2416 -92.5475 192° South  Level FlightAware Approximate
02:44PM 46.2428 -92.6064 202° Southwest 141 162 4,500  Level Minneapolis Center
02:45PM 46.1996 -92.5709 203° Southwest  Level FlightAware Approximate
02:45PM 46.2075 -92.6281 203° Southwest 140 161 4,500  Level Minneapolis Center
02:46PM 46.1616 -92.5943 203° Southwest  Level FlightAware Approximate
02:46PM 46.1644 -92.6514 201° Southwest 138 159 4,500  Level Minneapolis Center
02:47PM 46.1236 -92.6177 203° Southwest  Level FlightAware Approximate
02:47PM 46.1300 -92.6694 200° South 136 157 4,500  Level Minneapolis Center
02:48PM 46.0856 -92.6410 203° Southwest  Level FlightAware Approximate
02:48PM 46.0939 -92.6892 201° Southwest 136 157 4,500  Level Minneapolis Center
02:49PM 46.0476 -92.6644 203° Southwest  Level FlightAware Approximate
02:54PM 45.8700 -92.8150 201° Southwest 139 160 4,400  Level FlightAware
02:55PM 45.8550 -92.8230 200° South 137 158 4,400  Level FlightAware
02:55PM 45.8420 -92.8300 201° Southwest 136 157 4,400  Level FlightAware
02:56PM 45.8280 -92.8380 202° Southwest 135 155 4,400  Level FlightAware
02:56PM 45.8160 -92.8450 202° Southwest 135 155 4,400  Level FlightAware
02:56PM 45.8060 -92.8500 199° South 137 158 4,400  Level FlightAware
02:57PM 45.7930 -92.8570 201° Southwest 137 158 4,400  Level FlightAware
02:57PM 45.7810 -92.8640 202° Southwest 134 154 4,400  Level FlightAware
02:57PM 45.7660 -92.8720 200° South 139 160 4,400  Level FlightAware
02:58PM 45.7550 -92.8790 204° Southwest 140 161 4,400  Level FlightAware
02:58PM 45.7420 -92.8850 198° South 142 163 4,400  Level FlightAware
02:58PM 45.7290 -92.8930 203° Southwest 144 166 4,400 -180 Level FlightAware
02:59PM 45.7160 -92.9000 201° Southwest 150 173 4,300 -360 Descending FlightAware
02:59PM 45.7060 -92.9050 199° South 152 175 4,200 -360 Descending FlightAware
02:59PM 45.6940 -92.9120 202° Southwest 153 176 4,100 -300 Descending FlightAware
03:00PM 45.6800 -92.9200 202° Southwest 154 177 4,000 -300 Descending FlightAware
03:00PM 45.6660 -92.9270 199° South 151 174 3,900 -300 Descending FlightAware
03:00PM 45.6490 -92.9360 200° South 152 175 3,800 -300 Descending FlightAware
03:01PM 45.6360 -92.9440 203° Southwest 155 178 3,700 -300 Descending FlightAware
03:01PM 45.6220 -92.9510 199° South 156 180 3,600 -300 Descending FlightAware
03:01PM 45.6090 -92.9590 203° Southwest 157 181 3,500 -300 Descending FlightAware
03:02PM 45.5940 -92.9660 198° South 159 183 3,400 -300 Descending FlightAware
03:02PM 45.5780 -92.9750 201° Southwest 158 182 3,300 -300 Descending FlightAware
03:02PM 45.5660 -92.9820 202° Southwest 158 182 3,200 -360 Descending FlightAware
03:03PM 45.5530 -92.9890 201° Southwest 157 181 3,100 -300 Descending FlightAware
03:03PM 45.5380 -92.9970 200° South 158 182 3,000 -300 Descending FlightAware
03:04PM 45.5230 -93.0060 203° Southwest 158 182 2,900 -360 Descending FlightAware
03:04PM 45.5110 -93.0120 199° South 158 182 2,800 -420 Descending FlightAware
03:04PM 45.4920 -93.0220 200° South 159 183 2,600 -420 Descending FlightAware
03:05PM 45.4780 -93.0300 202° Southwest 158 182 2,500 -300 Descending FlightAware
03:05PM 45.4650 -93.0370 201° Southwest 159 183 2,400 -180 Descending FlightAware
03:05PM 45.4510 -93.0450 202° Southwest 158 182 2,400 -180 Level FlightAware
03:05PM 45.4410 -93.0500 199° South 158 182 2,300 -360 Descending FlightAware
03:06PM 45.4260 -93.0580 201° Southwest 159 183 2,200 -300 Descending FlightAware
03:06PM 45.4110 -93.0660 201° Southwest 161 185 2,100 -300 Descending FlightAware
03:07PM 45.3960 -93.0750 203° Southwest 165 190 2,000 -300 Descending FlightAware
03:07PM 45.3810 -93.0820 198° South 162 186 1,900 -300 Descending FlightAware
03:07PM 45.3610 -93.0930 201° Southwest 156 180 1,800 -180 Descending FlightAware
03:08PM 45.3490 -93.1000 202° Southwest 152 175 1,800  Level FlightAware
03:08PM 45.3320 -93.1090 200° South 159 183 1,800  Level FlightAware
03:08PM 45.3180 -93.1160 199° South 154 177 1,800  Level FlightAware
03:09PM 45.3050 -93.1240 203° Southwest 149 171 1,800  Level FlightAware
03:09PM 45.2920 -93.1310 201° Southwest 151 174 1,800  Level FlightAware
03:09PM 45.2780 -93.1380 199° South 148 170 1,800  Level FlightAware
03:10PM 45.2660 -93.1450 202° Southwest 150 173 1,800  Level FlightAware
03:10PM 45.2550 -93.1510 201° Southwest 147 169 1,800  Level FlightAware
03:10PM 45.2470 -93.1550 199° South 148 170 1,800  Level FlightAware
03:10PM 45.2420 -93.1590 209° Southwest 149 171 1,800  Level FlightAware
03:11PM 45.2360 -93.1640 210° Southwest 150 173 1,800  Level FlightAware
03:11PM 45.2120 -93.1850 212° Southwest 150 173 1,800  Level FlightAware
03:11PM 45.2060 -93.1910 215° Southwest 145 167 1,800 -180 Level FlightAware
03:12PM 45.1930 -93.2030 213° Southwest 125 144 1,700 -420 Descending FlightAware
03:12PM 45.1840 -93.2080 201° Southwest 100 115 1,500 -600 Descending FlightAware
03:13PM 45.1750 -93.2090 184° South 79 91 1,300 -720 Descending FlightAware
03:13PM 45.1710 -93.2090 180° South 78 90 1,100 -360 Descending FlightAware
03:13PM 45.1570 -93.2100 183° South 74 85 1,000 -180 Descending FlightAware
03:21PM 45.1449 -93.2102 199° South  Level Estimated
03:22PM 45.1449 -93.2102 199° South  Level Estimated